createdAt,value
2022-08-03T00:00:16.934Z,18.27
2022-08-03T00:01:16.414Z,18.27
2022-08-03T00:02:17.064Z,18.25
2022-08-03T00:03:17.113Z,18.23
2022-08-03T00:04:16.744Z,18.23
2022-08-03T00:05:17.239Z,18.22
2022-08-03T00:06:16.697Z,18.23
2022-08-03T00:07:17.119Z,18.15
2022-08-03T00:08:16.541Z,18.11
2022-08-03T00:09:17.021Z,18.06
2022-08-03T00:10:16.464Z,18.02
2022-08-03T00:11:16.880Z,18.02
2022-08-03T00:12:16.480Z,17.99
2022-08-03T00:13:16.538Z,17.98
2022-08-03T00:14:16.960Z,17.94
2022-08-03T00:15:17.092Z,17.94
2022-08-03T00:16:16.598Z,17.92
2022-08-03T00:17:17.059Z,17.91
2022-08-03T00:18:16.534Z,18.01
2022-08-03T00:19:16.978Z,17.97
2022-08-03T00:20:16.413Z,17.99
2022-08-03T00:21:16.837Z,17.98
2022-08-03T00:22:16.803Z,17.99
2022-08-03T00:23:16.681Z,17.95
2022-08-03T00:24:17.094Z,17.95
2022-08-03T00:25:16.525Z,17.94
2022-08-03T00:26:16.972Z,17.89
2022-08-03T00:27:16.666Z,17.88
2022-08-03T00:28:17.257Z,17.81
2022-08-03T00:29:16.883Z,17.81
2022-08-03T00:30:16.914Z,17.81
2022-08-03T00:31:17.944Z,17.80
2022-08-03T00:32:17.041Z,17.81
2022-08-03T00:33:16.357Z,17.77
2022-08-03T00:34:16.809Z,17.71
2022-08-03T00:35:36.630Z,17.70
2022-08-03T00:36:17.096Z,17.70
2022-08-03T00:37:16.581Z,17.63
2022-08-03T00:38:17.014Z,17.61
2022-08-03T00:39:16.436Z,17.63
2022-08-03T00:40:16.863Z,17.57
2022-08-03T00:41:17.289Z,17.57
2022-08-03T00:42:17.522Z,17.54
2022-08-03T00:43:16.469Z,17.47
2022-08-03T00:44:16.967Z,17.43
2022-08-03T00:45:16.446Z,17.44
2022-08-03T00:46:21.209Z,17.46
2022-08-03T00:47:16.460Z,17.43
2022-08-03T00:48:19.830Z,17.42
2022-08-03T00:49:16.996Z,17.40
2022-08-03T00:50:16.597Z,17.42
2022-08-03T00:51:17.023Z,17.42
2022-08-03T00:52:16.387Z,17.40
2022-08-03T00:53:16.833Z,17.40
2022-08-03T00:54:16.944Z,17.39
2022-08-03T00:55:16.376Z,17.35
2022-08-03T00:56:16.802Z,17.33
2022-08-03T00:57:17.269Z,17.32
2022-08-03T00:58:16.699Z,17.32
2022-08-03T00:59:17.169Z,17.30
2022-08-03T01:00:16.661Z,17.29
2022-08-03T01:01:17.116Z,17.29
2022-08-03T01:02:17.037Z,17.29
2022-08-03T01:03:16.991Z,17.27
2022-08-03T01:04:16.475Z,17.25
2022-08-03T01:05:16.961Z,17.26
2022-08-03T01:06:16.396Z,17.23
2022-08-03T01:07:16.824Z,17.23
2022-08-03T01:08:17.276Z,17.21
2022-08-03T01:09:16.707Z,17.21
2022-08-03T01:10:17.163Z,17.14
2022-08-03T01:11:16.606Z,17.14
2022-08-03T01:12:16.536Z,17.15
2022-08-03T01:13:59.391Z,17.14
2022-08-03T01:14:18.515Z,17.12
2022-08-03T01:15:16.443Z,17.08
2022-08-03T01:16:16.941Z,17.07
2022-08-03T01:17:16.406Z,17.05
2022-08-03T01:18:16.861Z,17.07
2022-08-03T01:19:16.296Z,17.05
2022-08-03T01:20:16.867Z,17.01
2022-08-03T01:21:16.277Z,17.04
2022-08-03T01:22:17.257Z,17.07
2022-08-03T01:23:16.322Z,17.07
2022-08-03T01:24:16.747Z,17.16
2022-08-03T01:25:17.179Z,17.16
2022-08-03T01:26:16.602Z,17.15
2022-08-03T01:27:17.112Z,17.14
2022-08-03T01:28:16.600Z,17.12
2022-08-03T01:29:17.068Z,17.08
2022-08-03T01:30:16.556Z,17.07
2022-08-03T01:31:17.016Z,16.99
2022-08-03T01:33:02.841Z,16.94
2022-08-03T01:33:16.315Z,16.91
2022-08-03T01:34:16.772Z,16.92
2022-08-03T01:35:17.204Z,16.90
2022-08-03T01:36:17.157Z,16.91
2022-08-03T01:37:16.573Z,16.87
2022-08-03T01:38:16.986Z,16.90
2022-08-03T01:39:16.408Z,16.87
2022-08-03T01:40:16.828Z,16.83
2022-08-03T01:41:17.276Z,16.78
2022-08-03T01:42:17.088Z,16.73
2022-08-03T01:43:55.783Z,16.71
2022-08-03T01:44:28.805Z,16.67
2022-08-03T01:45:17.274Z,16.68
2022-08-03T01:46:16.739Z,16.67
2022-08-03T01:47:17.225Z,16.68
2022-08-03T01:48:16.664Z,16.66
2022-08-03T01:49:17.160Z,16.67
2022-08-03T01:50:16.706Z,16.64
2022-08-03T01:51:16.692Z,16.66
2022-08-03T01:52:16.658Z,16.66
2022-08-03T01:53:16.383Z,16.67
2022-08-03T01:54:16.819Z,16.68
2022-08-03T01:55:17.298Z,16.67
2022-08-03T01:56:16.375Z,16.67
2022-08-03T01:57:16.832Z,16.68
2022-08-03T01:58:16.304Z,16.67
2022-08-03T01:59:16.779Z,16.67
2022-08-03T02:00:17.231Z,16.66
2022-08-03T02:01:17.159Z,16.67
2022-08-03T02:02:31.689Z,16.66
2022-08-03T02:03:16.759Z,16.64
2022-08-03T02:04:17.190Z,16.64
2022-08-03T02:05:16.602Z,16.62
2022-08-03T02:06:40.994Z,16.62
2022-08-03T02:07:16.511Z,16.62
2022-08-03T02:08:16.944Z,16.57
2022-08-03T02:09:16.381Z,16.57
2022-08-03T02:10:16.896Z,16.63
2022-08-03T02:11:17.126Z,16.62
2022-08-03T02:12:17.169Z,16.66
2022-08-03T02:13:17.189Z,16.67
2022-08-03T02:14:16.664Z,16.64
2022-08-03T02:15:17.106Z,16.60
2022-08-03T02:16:16.603Z,16.53
2022-08-03T02:17:17.060Z,16.39
2022-08-03T02:18:16.475Z,16.42
2022-08-03T02:19:16.909Z,16.37
2022-08-03T02:20:16.353Z,16.37
2022-08-03T02:21:21.080Z,16.42
2022-08-03T02:22:16.707Z,16.33
2022-08-03T02:23:16.551Z,16.31
2022-08-03T02:24:17.013Z,16.31
2022-08-03T02:25:16.464Z,16.28
2022-08-03T02:26:16.952Z,16.24
2022-08-03T02:27:16.418Z,16.31
2022-08-03T02:28:16.877Z,16.31
2022-08-03T02:29:16.336Z,16.24
2022-08-03T02:30:16.793Z,16.15
2022-08-03T02:31:17.270Z,16.12
2022-08-03T02:32:17.384Z,16.09
2022-08-03T02:33:16.481Z,16.07
2022-08-03T02:34:16.907Z,16.07
2022-08-03T02:35:16.363Z,16.08
2022-08-03T02:36:16.786Z,16.15
2022-08-03T02:37:17.211Z,16.21
2022-08-03T02:38:16.629Z,16.24
2022-08-03T02:39:17.101Z,16.22
2022-08-03T02:40:16.567Z,16.21
2022-08-03T02:41:17.017Z,16.19
2022-08-03T02:42:16.827Z,16.08
2022-08-03T02:43:16.901Z,16.05
2022-08-03T02:44:16.343Z,16.01
2022-08-03T02:45:16.800Z,15.97
2022-08-03T02:46:17.254Z,15.95
2022-08-03T02:47:16.682Z,15.95
2022-08-03T02:48:17.124Z,15.95
2022-08-03T02:49:35.138Z,15.97
2022-08-03T02:50:17.112Z,15.97
2022-08-03T02:51:16.683Z,15.97
2022-08-03T02:52:17.376Z,15.88
2022-08-03T02:53:16.280Z,15.87
2022-08-03T02:54:16.729Z,15.87
2022-08-03T02:55:17.208Z,15.87
2022-08-03T02:56:16.661Z,15.84
2022-08-03T02:57:17.131Z,15.85
2022-08-03T02:58:16.615Z,15.83
2022-08-03T02:59:17.080Z,15.85
2022-08-03T03:00:19.318Z,15.83
2022-08-03T03:01:17.025Z,15.87
2022-08-03T03:02:17.252Z,15.90
2022-08-03T03:03:17.263Z,15.91
2022-08-03T03:04:17.225Z,15.90
2022-08-03T03:05:53.802Z,15.88
2022-08-03T03:06:16.455Z,15.88
2022-08-03T03:07:16.870Z,15.87
2022-08-03T03:08:17.861Z,15.84
2022-08-03T03:09:17.078Z,15.85
2022-08-03T03:10:16.568Z,15.83
2022-08-03T03:11:17.043Z,15.85
2022-08-03T03:12:17.092Z,15.87
2022-08-03T03:13:16.999Z,15.87
2022-08-03T03:14:16.442Z,15.88
2022-08-03T03:15:17.127Z,15.92
2022-08-03T03:16:16.579Z,15.94
2022-08-03T03:17:17.011Z,15.90
2022-08-03T03:18:20.190Z,15.88
2022-08-03T03:19:16.348Z,15.88
2022-08-03T03:20:16.776Z,15.83
2022-08-03T03:21:16.706Z,15.78
2022-08-03T03:22:17.173Z,15.83
2022-08-03T03:23:17.114Z,15.85
2022-08-03T03:24:16.577Z,15.80
2022-08-03T03:25:17.031Z,15.81
2022-08-03T03:26:16.632Z,15.78
2022-08-03T03:27:17.104Z,15.77
2022-08-03T03:28:16.569Z,15.74
2022-08-03T03:29:17.043Z,15.73
2022-08-03T03:30:16.474Z,15.73
2022-08-03T03:31:16.905Z,15.67
2022-08-03T03:32:16.834Z,15.63
2022-08-03T03:33:16.945Z,15.69
2022-08-03T03:34:16.355Z,15.69
2022-08-03T03:35:17.033Z,15.69
2022-08-03T03:36:16.449Z,15.69
2022-08-03T03:37:16.898Z,15.67
2022-08-03T03:38:16.327Z,15.63
2022-08-03T03:39:16.781Z,15.63
2022-08-03T03:40:17.286Z,15.64
2022-08-03T03:41:16.741Z,15.63
2022-08-03T03:42:17.168Z,15.62
2022-08-03T03:43:17.208Z,15.57
2022-08-03T03:44:16.699Z,15.56
2022-08-03T03:45:17.138Z,15.57
2022-08-03T03:46:16.595Z,15.59
2022-08-03T03:47:17.006Z,15.49
2022-08-03T03:48:17.252Z,15.41
2022-08-03T03:49:16.751Z,15.31
2022-08-03T03:50:17.269Z,15.28
2022-08-03T03:51:16.715Z,15.27
2022-08-03T03:52:17.325Z,15.22
2022-08-03T03:53:16.321Z,15.21
2022-08-03T03:54:16.835Z,15.22
2022-08-03T03:55:17.279Z,15.25
2022-08-03T03:56:16.738Z,15.25
2022-08-03T03:57:17.178Z,15.27
2022-08-03T03:58:16.642Z,15.25
2022-08-03T03:59:17.102Z,15.21
2022-08-03T04:00:16.539Z,15.22
2022-08-03T04:01:17.009Z,15.19
2022-08-03T04:02:16.792Z,15.15
2022-08-03T04:03:16.665Z,15.11
2022-08-03T04:04:17.081Z,15.12
2022-08-03T04:05:16.915Z,15.11
2022-08-03T04:06:16.372Z,15.15
2022-08-03T04:07:16.835Z,15.15
2022-08-03T04:08:17.323Z,15.18
2022-08-03T04:09:16.824Z,15.19
2022-08-03T04:10:16.310Z,15.17
2022-08-03T04:11:16.786Z,15.19
2022-08-03T04:12:17.551Z,15.18
2022-08-03T04:13:17.216Z,15.19
2022-08-03T04:14:16.654Z,15.21
2022-08-03T04:15:17.086Z,15.28
2022-08-03T04:16:16.518Z,15.29
2022-08-03T04:17:16.950Z,15.25
2022-08-03T04:18:16.363Z,15.22
2022-08-03T04:19:21.134Z,15.18
2022-08-03T04:20:16.855Z,15.18
2022-08-03T04:21:17.304Z,15.19
2022-08-03T04:22:16.591Z,15.21
2022-08-03T04:23:16.575Z,15.22
2022-08-03T04:24:17.028Z,15.21
2022-08-03T04:25:16.499Z,15.25
2022-08-03T04:26:16.956Z,15.29
2022-08-03T04:27:16.412Z,15.29
2022-08-03T04:28:30.253Z,15.32
2022-08-03T04:29:16.865Z,15.34
2022-08-03T04:30:16.319Z,15.35
2022-08-03T04:31:16.794Z,15.32
2022-08-03T04:32:16.688Z,15.35
2022-08-03T04:33:16.865Z,15.35
2022-08-03T04:34:17.079Z,15.31
2022-08-03T04:35:16.499Z,15.36
2022-08-03T04:36:16.942Z,15.41
2022-08-03T04:37:16.398Z,15.43
2022-08-03T04:38:16.849Z,15.57
2022-08-03T04:39:16.303Z,15.59
2022-08-03T04:40:16.785Z,15.60
2022-08-03T04:41:16.338Z,15.63
2022-08-03T04:42:17.323Z,15.66
2022-08-03T04:43:17.004Z,15.69
2022-08-03T04:44:16.460Z,15.69
2022-08-03T04:45:16.897Z,15.74
2022-08-03T04:46:16.319Z,15.83
2022-08-03T04:47:16.752Z,15.83
2022-08-03T04:48:17.179Z,15.83
2022-08-03T04:49:16.645Z,15.92
2022-08-03T04:50:21.291Z,15.91
2022-08-03T04:51:17.152Z,15.97
2022-08-03T04:52:17.445Z,16.05
2022-08-03T04:53:16.435Z,16.08
2022-08-03T04:54:16.887Z,16.21
2022-08-03T04:55:16.359Z,16.29
2022-08-03T04:56:16.811Z,16.31
2022-08-03T04:57:22.581Z,16.33
2022-08-03T04:58:17.015Z,16.40
2022-08-03T04:59:16.471Z,16.49
2022-08-03T05:00:16.951Z,16.47
2022-08-03T05:01:16.436Z,16.52
2022-08-03T05:02:17.242Z,16.60
2022-08-03T05:03:19.385Z,16.62
2022-08-03T05:04:16.519Z,16.64
2022-08-03T05:05:16.952Z,16.63
2022-08-03T05:06:16.509Z,16.68
2022-08-03T05:07:16.481Z,16.73
2022-08-03T05:08:17.251Z,16.81
2022-08-03T05:09:33.496Z,16.87
2022-08-03T05:10:16.890Z,16.95
2022-08-03T05:11:16.386Z,16.99
2022-08-03T05:12:16.922Z,17.11
2022-08-03T05:13:17.119Z,17.16
2022-08-03T05:14:16.566Z,17.29
2022-08-03T05:15:16.794Z,17.39
2022-08-03T05:16:17.243Z,17.42
2022-08-03T05:17:16.698Z,17.50
2022-08-03T05:18:17.114Z,17.56
2022-08-03T05:19:16.562Z,17.54
2022-08-03T05:20:19.007Z,17.66
2022-08-03T05:21:16.582Z,17.71
2022-08-03T05:22:17.321Z,17.76
2022-08-03T05:23:17.257Z,17.89
2022-08-03T05:24:16.717Z,18.01
2022-08-03T05:25:19.919Z,18.04
2022-08-03T05:26:16.442Z,18.13
2022-08-03T05:27:16.921Z,18.19
2022-08-03T05:28:16.416Z,18.29
2022-08-03T05:29:16.868Z,18.33
2022-08-03T05:30:26.426Z,18.37
2022-08-03T05:31:17.125Z,18.43
2022-08-03T05:32:17.314Z,18.49
2022-08-03T05:33:16.441Z,18.58
2022-08-03T05:34:16.857Z,18.72
2022-08-03T05:35:55.519Z,18.79
2022-08-03T05:36:16.730Z,18.89
2022-08-03T05:37:17.181Z,18.95
2022-08-03T05:38:23.807Z,19.01
2022-08-03T05:39:16.611Z,19.09
2022-08-03T05:40:17.081Z,19.16
2022-08-03T05:41:20.906Z,19.19
2022-08-03T05:42:17.045Z,19.27
2022-08-03T05:43:17.040Z,19.39
2022-08-03T05:44:16.514Z,19.44
2022-08-03T05:45:17.001Z,19.43
2022-08-03T05:46:16.443Z,19.44
2022-08-03T05:47:16.875Z,19.44
2022-08-03T05:48:16.304Z,19.48
2022-08-03T05:49:16.763Z,19.57
2022-08-03T05:50:17.299Z,19.58
2022-08-03T05:51:16.723Z,19.64
2022-08-03T05:52:18.275Z,19.76
2022-08-03T05:53:17.231Z,19.91
2022-08-03T05:54:16.692Z,19.96
2022-08-03T05:55:17.155Z,20.06
2022-08-03T05:56:16.988Z,20.15
2022-08-03T05:57:16.649Z,20.15
2022-08-03T05:58:17.098Z,20.26
2022-08-03T06:00:17.131Z,20.33
2022-08-03T06:01:16.782Z,20.41
2022-08-03T06:02:16.863Z,20.51
2022-08-03T06:03:16.758Z,20.59
2022-08-03T06:04:16.703Z,20.64
2022-08-03T06:05:17.143Z,20.68
2022-08-03T06:06:16.643Z,20.71
2022-08-03T06:07:17.121Z,20.76
2022-08-03T06:08:16.589Z,20.86
2022-08-03T06:09:17.240Z,20.98
2022-08-03T06:10:34.715Z,20.98
2022-08-03T06:11:17.145Z,20.99
2022-08-03T06:12:16.939Z,20.96
2022-08-03T06:13:16.724Z,21.02
2022-08-03T06:14:17.151Z,21.11
2022-08-03T06:15:16.587Z,21.29
2022-08-03T06:16:17.012Z,21.38
2022-08-03T06:17:16.460Z,21.51
2022-08-03T06:18:16.903Z,21.60
2022-08-03T06:19:16.406Z,21.72
2022-08-03T06:20:16.900Z,21.81
2022-08-03T06:21:16.472Z,22.02
2022-08-03T06:22:16.846Z,22.09
2022-08-03T06:23:17.928Z,22.12
2022-08-03T06:24:17.097Z,22.30
2022-08-03T06:25:16.560Z,22.54
2022-08-03T06:26:16.452Z,22.58
2022-08-03T06:27:16.916Z,22.75
2022-08-03T06:28:29.006Z,22.82
2022-08-03T06:29:16.756Z,22.74
2022-08-03T06:30:20.972Z,22.80
2022-08-03T06:31:17.002Z,23.00
2022-08-03T06:32:16.697Z,23.16
2022-08-03T06:33:17.140Z,23.44
2022-08-03T06:34:31.990Z,23.72
2022-08-03T06:35:17.005Z,23.89
2022-08-03T06:36:16.686Z,23.93
2022-08-03T06:37:17.176Z,24.09
2022-08-03T06:38:16.668Z,24.34
2022-08-03T06:39:17.126Z,24.46
2022-08-03T06:40:16.592Z,24.57
2022-08-03T06:41:17.068Z,24.68
2022-08-03T06:42:16.863Z,24.74
2022-08-03T06:43:16.737Z,24.85
2022-08-03T06:44:17.156Z,24.72
2022-08-03T06:45:16.579Z,24.85
2022-08-03T06:46:16.444Z,24.99
2022-08-03T06:47:16.877Z,25.28
2022-08-03T06:48:16.329Z,25.44
2022-08-03T06:49:16.845Z,25.60
2022-08-03T06:50:18.020Z,25.72
2022-08-03T06:51:17.263Z,25.82
2022-08-03T06:52:37.381Z,25.96
2022-08-03T06:53:19.275Z,26.06
2022-08-03T06:54:16.990Z,25.95
2022-08-03T06:55:16.419Z,26.37
2022-08-03T06:56:16.832Z,26.44
2022-08-03T06:57:17.289Z,26.62
2022-08-03T06:58:16.745Z,26.68
2022-08-03T07:00:06.851Z,27.23
2022-08-03T07:00:16.640Z,27.61
2022-08-03T07:01:18.454Z,27.73
2022-08-03T07:02:18.947Z,28.35
2022-08-03T07:03:17.108Z,28.66
2022-08-03T07:04:16.576Z,28.71
2022-08-03T07:05:17.081Z,28.54
2022-08-03T07:06:16.579Z,28.79
2022-08-03T07:07:17.076Z,29.17
2022-08-03T07:08:16.537Z,29.79
2022-08-03T07:09:17.211Z,29.76
2022-08-03T07:10:16.697Z,29.83
2022-08-03T07:11:17.108Z,30.14
2022-08-03T07:12:16.823Z,29.55
2022-08-03T07:13:16.608Z,29.75
2022-08-03T07:14:17.061Z,30.28
2022-08-03T07:15:20.324Z,30.54
2022-08-03T07:16:17.000Z,31.03
2022-08-03T07:17:17.255Z,31.01
2022-08-03T07:18:16.727Z,31.09
2022-08-03T07:19:17.183Z,31.10
2022-08-03T07:20:16.639Z,31.44
2022-08-03T07:21:17.077Z,31.71
2022-08-03T07:22:16.912Z,31.77
2022-08-03T07:23:18.841Z,31.58
2022-08-03T07:24:16.876Z,31.87
2022-08-03T07:25:16.325Z,31.85
2022-08-03T07:26:16.739Z,31.85
2022-08-03T07:27:17.162Z,32.11
2022-08-03T07:28:16.581Z,31.96
2022-08-03T07:29:16.996Z,31.62
2022-08-03T07:30:16.462Z,31.69
2022-08-03T07:31:16.882Z,31.79
2022-08-03T07:32:16.847Z,31.61
2022-08-03T07:33:16.867Z,31.44
2022-08-03T07:34:16.341Z,31.21
2022-08-03T07:35:24.342Z,31.44
2022-08-03T07:36:16.966Z,31.71
2022-08-03T07:37:16.445Z,32.14
2022-08-03T07:38:17.162Z,32.31
2022-08-03T07:39:17.952Z,32.58
2022-08-03T07:40:16.657Z,32.58
2022-08-03T07:41:17.069Z,32.63
2022-08-03T07:42:17.167Z,32.44
2022-08-03T07:43:16.330Z,32.66
2022-08-03T07:44:16.786Z,32.79
2022-08-03T07:45:17.224Z,32.62
2022-08-03T07:46:16.685Z,32.83
2022-08-03T07:47:19.417Z,32.85
2022-08-03T07:48:16.286Z,32.91
2022-08-03T07:49:16.805Z,33.14
2022-08-03T07:50:16.381Z,33.12
2022-08-03T07:51:16.868Z,33.37
2022-08-03T07:52:16.564Z,33.64
2022-08-03T07:53:16.505Z,33.86
2022-08-03T07:54:16.959Z,32.75
2022-08-03T07:55:16.401Z,32.48
2022-08-03T07:56:16.847Z,33.06
2022-08-03T07:57:17.283Z,34.13
2022-08-03T07:58:20.597Z,34.83
2022-08-03T07:59:16.759Z,35.17
2022-08-03T08:00:17.206Z,35.62
2022-08-03T08:01:16.674Z,35.23
2022-08-03T08:02:16.747Z,35.40
2022-08-03T08:03:16.816Z,35.65
2022-08-03T08:04:17.269Z,35.77
2022-08-03T08:05:16.736Z,35.72
2022-08-03T08:06:17.216Z,35.67
2022-08-03T08:07:16.527Z,35.48
2022-08-03T08:08:17.019Z,35.75
2022-08-03T08:09:16.448Z,34.95
2022-08-03T08:10:16.866Z,35.34
2022-08-03T08:11:16.327Z,36.02
2022-08-03T08:12:17.172Z,36.51
2022-08-03T08:13:17.224Z,35.78
2022-08-03T08:14:16.661Z,35.79
2022-08-03T08:15:17.097Z,36.15
2022-08-03T08:16:16.565Z,36.15
2022-08-03T08:17:17.002Z,36.18
2022-08-03T08:18:16.461Z,36.13
2022-08-03T08:19:16.911Z,36.63
2022-08-03T08:20:16.336Z,36.74
2022-08-03T08:21:16.628Z,36.67
2022-08-03T08:22:16.771Z,37.15
2022-08-03T08:23:22.292Z,37.01
2022-08-03T08:24:18.071Z,37.09
2022-08-03T08:25:16.752Z,35.14
2022-08-03T08:26:16.896Z,35.72
2022-08-03T08:27:16.316Z,37.05
2022-08-03T08:28:22.136Z,37.63
2022-08-03T08:29:16.887Z,37.06
2022-08-03T08:30:19.219Z,36.73
2022-08-03T08:31:17.093Z,37.15
2022-08-03T08:32:16.550Z,37.37
2022-08-03T08:33:22.206Z,37.44
2022-08-03T08:34:16.429Z,38.39
2022-08-03T08:35:16.912Z,38.68
2022-08-03T08:36:16.415Z,38.94
2022-08-03T08:37:16.876Z,38.93
2022-08-03T08:38:16.308Z,39.04
2022-08-03T08:39:17.529Z,39.16
2022-08-03T08:40:16.661Z,39.13
2022-08-03T08:41:17.118Z,39.33
2022-08-03T08:42:17.025Z,39.50
2022-08-03T08:43:16.917Z,37.82
2022-08-03T08:44:16.354Z,36.68
2022-08-03T08:45:16.830Z,36.96
2022-08-03T08:46:23.045Z,37.19
2022-08-03T08:47:16.513Z,37.23
2022-08-03T08:48:16.995Z,37.95
2022-08-03T08:49:16.518Z,38.37
2022-08-03T08:50:27.547Z,38.18
2022-08-03T08:51:16.807Z,37.43
2022-08-03T08:52:25.068Z,37.15
2022-08-03T08:53:18.122Z,37.40
2022-08-03T08:54:16.656Z,37.73
2022-08-03T08:55:17.151Z,37.78
2022-08-03T08:56:16.585Z,37.20
2022-08-03T08:57:40.648Z,37.68
2022-08-03T08:58:20.842Z,38.42
2022-08-03T08:59:16.500Z,38.19
2022-08-03T09:00:17.151Z,38.61
2022-08-03T09:01:16.765Z,38.61
2022-08-03T09:02:17.254Z,38.59
2022-08-03T09:03:22.787Z,38.74
2022-08-03T09:04:17.229Z,38.46
2022-08-03T09:05:16.718Z,38.19
2022-08-03T09:06:17.156Z,38.97
2022-08-03T09:07:20.255Z,39.38
2022-08-03T09:08:17.272Z,39.18
2022-08-03T09:09:28.553Z,37.28
2022-08-03T09:10:17.194Z,37.85
2022-08-03T09:11:16.607Z,38.59
2022-08-03T09:12:39.023Z,39.46
2022-08-03T09:13:16.894Z,39.47
2022-08-03T09:14:33.734Z,37.54
2022-08-03T09:15:17.603Z,37.16
2022-08-03T09:16:17.165Z,38.09
2022-08-03T09:17:17.449Z,37.95
2022-08-03T09:18:17.200Z,36.58
2022-08-03T09:19:16.658Z,36.85
2022-08-03T09:20:17.126Z,37.41
2022-08-03T09:21:29.980Z,38.51
2022-08-03T09:22:16.454Z,39.05
2022-08-03T09:23:51.261Z,39.15
2022-08-03T09:24:25.860Z,39.78
2022-08-03T09:25:23.672Z,39.63
2022-08-03T09:26:16.375Z,39.97
2022-08-03T09:27:16.969Z,39.80
2022-08-03T09:28:52.621Z,39.50
2022-08-03T09:29:17.209Z,39.75
2022-08-03T09:30:19.217Z,39.84
2022-08-03T09:31:17.215Z,40.49
2022-08-03T09:32:16.803Z,40.07
2022-08-03T09:33:17.265Z,39.83
2022-08-03T09:34:16.902Z,39.73
2022-08-03T09:35:23.769Z,39.95
2022-08-03T09:36:16.991Z,40.02
2022-08-03T09:37:16.629Z,39.67
2022-08-03T09:38:16.507Z,39.40
2022-08-03T09:39:16.952Z,37.98
2022-08-03T09:40:16.426Z,39.28
2022-08-03T09:41:16.867Z,40.00
2022-08-03T09:42:16.365Z,40.62
2022-08-03T09:43:17.051Z,41.04
2022-08-03T09:44:25.505Z,41.09
2022-08-03T09:45:16.578Z,39.87
2022-08-03T09:46:17.030Z,40.26
2022-08-03T09:47:16.848Z,40.14
2022-08-03T09:48:16.955Z,40.12
2022-08-03T09:49:16.424Z,39.59
2022-08-03T09:50:17.059Z,39.42
2022-08-03T09:51:33.485Z,39.52
2022-08-03T09:52:30.164Z,39.88
2022-08-03T09:53:16.346Z,40.22
2022-08-03T09:54:20.616Z,39.63
2022-08-03T09:55:23.776Z,39.47
2022-08-03T09:56:32.807Z,40.41
2022-08-03T09:57:17.270Z,39.94
2022-08-03T09:58:17.019Z,39.90
2022-08-03T09:59:16.484Z,39.98
2022-08-03T10:00:16.949Z,40.42
2022-08-03T10:01:23.774Z,40.59
2022-08-03T10:02:17.074Z,40.36
2022-08-03T10:03:16.547Z,40.86
2022-08-03T10:04:17.028Z,40.98
2022-08-03T10:05:17.690Z,41.18
2022-08-03T10:06:16.415Z,41.41
2022-08-03T10:07:16.969Z,41.32
2022-08-03T10:08:16.922Z,41.38
2022-08-03T10:09:16.374Z,41.48
2022-08-03T10:10:29.240Z,41.52
2022-08-03T10:11:16.373Z,40.87
2022-08-03T10:12:16.792Z,40.52
2022-08-03T10:13:16.555Z,40.47
2022-08-03T10:14:17.001Z,39.88
2022-08-03T10:16:20.675Z,40.52
2022-08-03T10:16:21.083Z,39.94
2022-08-03T10:17:17.472Z,39.92
2022-08-03T10:18:16.392Z,39.49
2022-08-03T10:19:16.863Z,39.39
2022-08-03T10:20:16.304Z,39.61
2022-08-03T10:21:16.742Z,40.32
2022-08-03T10:22:16.452Z,40.83
2022-08-03T10:23:16.870Z,41.29
2022-08-03T10:24:16.310Z,41.55
2022-08-03T10:25:16.766Z,41.87
2022-08-03T10:26:17.183Z,41.14
2022-08-03T10:27:16.887Z,40.80
2022-08-03T10:28:16.729Z,40.87
2022-08-03T10:29:17.222Z,40.93
2022-08-03T10:30:16.707Z,39.63
2022-08-03T10:31:17.160Z,39.56
2022-08-03T10:32:16.560Z,39.56
2022-08-03T10:33:50.501Z,38.74
2022-08-03T10:34:16.496Z,38.78
2022-08-03T10:35:20.736Z,38.71
2022-08-03T10:36:17.029Z,38.50
2022-08-03T10:37:16.683Z,38.47
2022-08-03T10:38:16.549Z,38.42
2022-08-03T10:39:16.977Z,39.13
2022-08-03T10:40:27.834Z,39.12
2022-08-03T10:41:17.104Z,38.85
2022-08-03T10:42:16.422Z,38.19
2022-08-03T10:43:16.758Z,38.09
2022-08-03T10:44:17.228Z,38.15
2022-08-03T10:45:16.722Z,38.20
2022-08-03T10:46:16.549Z,38.35
2022-08-03T10:47:17.196Z,37.99
2022-08-03T10:48:17.015Z,37.85
2022-08-03T10:49:16.474Z,37.88
2022-08-03T10:50:16.588Z,37.44
2022-08-03T10:51:16.373Z,37.46
2022-08-03T10:52:31.703Z,37.46
2022-08-03T10:53:16.662Z,37.29
2022-08-03T10:54:16.492Z,37.68
2022-08-03T10:55:16.815Z,37.75
2022-08-03T10:56:17.245Z,37.94
2022-08-03T10:57:16.867Z,38.25
2022-08-03T10:58:25.145Z,38.20
2022-08-03T10:59:22.967Z,38.46
2022-08-03T11:00:16.607Z,38.53
2022-08-03T11:01:16.850Z,38.33
2022-08-03T11:02:16.640Z,38.25
2022-08-03T11:03:17.100Z,38.60
2022-08-03T11:04:17.034Z,38.59
2022-08-03T11:05:16.582Z,38.63
2022-08-03T11:06:17.001Z,38.39
2022-08-03T11:07:17.385Z,38.29
2022-08-03T11:08:16.370Z,38.45
2022-08-03T11:09:16.793Z,38.54
2022-08-03T11:10:17.288Z,38.61
2022-08-03T11:11:16.747Z,38.57
2022-08-03T11:12:16.485Z,38.84
2022-08-03T11:13:17.015Z,39.01
2022-08-03T11:14:16.491Z,39.36
2022-08-03T11:15:16.957Z,39.36
2022-08-03T11:16:19.858Z,39.16
2022-08-03T11:17:16.983Z,38.45
2022-08-03T11:18:16.903Z,38.50
2022-08-03T11:19:16.328Z,38.59
2022-08-03T11:20:16.751Z,38.77
2022-08-03T11:21:17.183Z,39.06
2022-08-03T11:22:16.812Z,38.67
2022-08-03T11:23:17.252Z,39.13
2022-08-03T11:24:16.695Z,39.25
2022-08-03T11:25:53.250Z,39.35
2022-08-03T11:26:16.642Z,39.36
2022-08-03T11:27:17.247Z,38.61
2022-08-03T11:28:16.375Z,38.84
2022-08-03T11:29:16.890Z,39.52
2022-08-03T11:30:16.354Z,39.59
2022-08-03T11:31:32.925Z,39.29
2022-08-03T11:32:19.470Z,38.93
2022-08-03T11:33:17.018Z,38.73
2022-08-03T11:34:16.475Z,38.95
2022-08-03T11:35:16.898Z,39.16
2022-08-03T11:36:16.319Z,38.82
2022-08-03T11:37:17.191Z,38.68
2022-08-03T11:38:17.145Z,38.19
2022-08-03T11:39:17.118Z,37.11
2022-08-03T11:40:16.647Z,37.09
2022-08-03T11:41:17.106Z,37.77
2022-08-03T11:42:16.536Z,38.07
2022-08-03T11:43:16.983Z,38.26
2022-08-03T11:44:16.467Z,36.77
2022-08-03T11:45:18.328Z,37.28
2022-08-03T11:46:28.816Z,37.48
2022-08-03T11:47:17.241Z,36.10
2022-08-03T11:48:16.281Z,36.63
2022-08-03T11:49:16.766Z,37.01
2022-08-03T11:50:16.308Z,37.19
2022-08-03T11:51:16.736Z,37.32
2022-08-03T11:52:16.466Z,37.20
2022-08-03T11:53:16.902Z,36.37
2022-08-03T11:54:16.384Z,36.50
2022-08-03T11:55:16.859Z,36.29
2022-08-03T11:56:16.318Z,36.36
2022-08-03T11:57:16.894Z,36.43
2022-08-03T11:58:57.597Z,36.24
2022-08-03T11:59:21.049Z,35.91
2022-08-03T12:00:17.035Z,35.54
2022-08-03T12:01:18.864Z,35.60
2022-08-03T12:02:16.432Z,35.43
2022-08-03T12:03:16.914Z,35.30
2022-08-03T12:04:16.693Z,35.20
2022-08-03T12:05:17.246Z,34.74
2022-08-03T12:06:16.742Z,34.16
2022-08-03T12:07:24.508Z,34.23
2022-08-03T12:08:16.706Z,34.04
2022-08-03T12:09:17.204Z,33.65
2022-08-03T12:10:16.809Z,33.54
2022-08-03T12:11:17.246Z,33.00
2022-08-03T12:12:17.018Z,32.87
2022-08-03T12:13:57.080Z,32.87
2022-08-03T12:14:46.142Z,32.63
2022-08-03T12:15:16.478Z,32.32
2022-08-03T12:16:17.057Z,32.44
2022-08-03T12:17:16.790Z,32.68
2022-08-03T12:18:17.199Z,32.51
2022-08-03T12:19:16.629Z,32.50
2022-08-03T12:20:16.306Z,32.37
2022-08-03T12:21:16.733Z,32.30
2022-08-03T12:22:16.508Z,32.27
2022-08-03T12:23:16.973Z,32.09
2022-08-03T12:24:16.463Z,32.04
2022-08-03T12:25:16.910Z,32.00
2022-08-03T12:26:17.212Z,31.97
2022-08-03T12:27:16.838Z,31.97
2022-08-03T12:28:28.197Z,32.09
2022-08-03T12:29:17.178Z,32.17
2022-08-03T12:30:16.640Z,32.30
2022-08-03T12:31:17.079Z,32.28
2022-08-03T12:32:16.378Z,32.18
2022-08-03T12:33:16.816Z,32.17
2022-08-03T12:34:16.360Z,32.21
2022-08-03T12:35:16.843Z,32.23
2022-08-03T12:36:17.294Z,32.20
2022-08-03T12:37:19.121Z,32.17
2022-08-03T12:38:17.050Z,32.20
2022-08-03T12:39:16.546Z,32.18
2022-08-03T12:40:20.072Z,32.07
2022-08-03T12:41:17.052Z,32.00
2022-08-03T12:42:16.399Z,31.76
2022-08-03T12:43:16.785Z,31.90
2022-08-03T12:44:17.235Z,31.94
2022-08-03T12:45:16.700Z,32.04
2022-08-03T12:46:17.126Z,31.96
2022-08-03T12:47:16.754Z,31.89
2022-08-03T12:48:16.543Z,31.97
2022-08-03T12:49:17.083Z,32.03
2022-08-03T12:50:16.806Z,32.28
2022-08-03T12:51:17.259Z,32.14
2022-08-03T12:52:16.628Z,32.06
2022-08-03T12:53:17.106Z,32.04